createdAt,value
2023-11-27T00:04:43.593Z,97586.16
2023-11-27T00:09:46.778Z,97590.28
2023-11-27T00:15:09.216Z,97589.06
2023-11-27T00:20:13.550Z,97597.81
2023-11-27T00:25:17.502Z,97569.66
2023-11-27T00:30:21.299Z,97583.31
2023-11-27T00:35:24.442Z,97596.13
2023-11-27T00:40:27.492Z,97587.38
2023-11-27T00:45:32.576Z,97578.22
2023-11-27T00:50:35.561Z,97582.00
2023-11-27T00:55:38.812Z,97576.94
2023-11-27T01:00:41.987Z,97571.75
2023-11-27T01:05:45.127Z,97588.13
2023-11-27T01:10:48.351Z,97584.38
2023-11-27T01:15:51.642Z,97601.41
2023-11-27T01:20:55.240Z,97585.88
2023-11-27T01:25:58.155Z,97579.84
2023-11-27T01:31:01.173Z,97587.50
2023-11-27T01:36:04.822Z,97579.63
2023-11-27T01:41:08.099Z,97564.06
2023-11-27T01:46:20.287Z,97566.72
2023-11-27T01:51:24.922Z,97568.22
2023-11-27T01:56:30.667Z,97554.31
2023-11-27T02:01:34.331Z,97547.38
2023-11-27T02:06:37.443Z,97547.44
2023-11-27T02:11:59.096Z,97540.72
2023-11-27T02:17:04.648Z,97557.72
2023-11-27T02:22:08.019Z,97563.00
2023-11-27T02:27:11.151Z,97600.28
2023-11-27T02:32:14.114Z,97562.25
2023-11-27T02:37:17.224Z,97562.66
2023-11-27T02:42:20.486Z,97548.19
2023-11-27T02:47:23.787Z,97571.03
2023-11-27T02:52:26.932Z,97549.81
2023-11-27T02:57:30.013Z,97551.34
2023-11-27T03:02:36.389Z,97560.84
2023-11-27T03:07:39.496Z,97527.84
2023-11-27T03:12:43.368Z,97521.84
2023-11-27T03:17:46.966Z,97513.50
2023-11-27T03:22:50.269Z,97504.75
2023-11-27T03:27:53.414Z,97511.47
2023-11-27T03:33:15.318Z,97532.06
2023-11-27T03:38:18.265Z,97535.47
2023-11-27T03:43:21.725Z,97550.72
2023-11-27T03:48:24.737Z,97554.53
2023-11-27T03:53:46.475Z,97549.63
2023-11-27T03:58:49.704Z,97549.22
2023-11-27T04:03:52.740Z,97546.22
2023-11-27T04:08:55.925Z,97553.03
2023-11-27T04:13:59.378Z,97552.28
2023-11-27T04:19:22.072Z,97550.88
2023-11-27T04:24:25.069Z,97549.25
2023-11-27T04:29:28.162Z,97544.06
2023-11-27T04:34:31.284Z,97544.44
2023-11-27T04:39:35.018Z,97539.19
2023-11-27T04:44:38.430Z,97547.94
2023-11-27T04:49:41.465Z,97535.75
2023-11-27T04:54:44.442Z,97532.38
2023-11-27T04:59:47.681Z,97540.69
2023-11-27T05:04:50.770Z,97541.91
2023-11-27T05:09:54.342Z,97532.47
2023-11-27T05:14:57.755Z,97539.75
2023-11-27T05:20:01.506Z,97550.63
2023-11-27T05:25:07.507Z,97568.25
2023-11-27T05:30:10.787Z,97572.06
2023-11-27T05:35:14.168Z,97551.84
2023-11-27T05:40:17.784Z,97539.88
2023-11-27T05:45:21.848Z,97522.72
2023-11-27T05:50:24.812Z,97521.16
2023-11-27T05:55:28.701Z,97496.34
2023-11-27T06:00:32.447Z,97500.91
2023-11-27T06:05:36.683Z,97503.13
2023-11-27T06:10:39.823Z,97511.75
2023-11-27T06:15:47.936Z,97512.88
2023-11-27T06:20:51.403Z,97521.75
2023-11-27T06:25:54.445Z,97557.81
2023-11-27T06:30:57.475Z,97574.88
2023-11-27T06:36:01.864Z,97568.31
2023-11-27T06:41:24.965Z,97552.56
2023-11-27T06:46:31.457Z,97556.16
2023-11-27T06:51:35.187Z,97536.66
2023-11-27T06:56:38.590Z,97548.09
2023-11-27T07:01:45.135Z,97568.69
2023-11-27T07:06:48.288Z,97562.69
2023-11-27T07:11:51.828Z,97564.84
2023-11-27T07:16:56.059Z,97566.16
2023-11-27T07:21:59.472Z,97583.97
2023-11-27T07:27:04.220Z,97625.91
2023-11-27T07:32:07.658Z,97623.66
2023-11-27T07:37:10.738Z,97606.00
2023-11-27T07:42:16.147Z,97617.13
2023-11-27T07:47:19.212Z,97607.19
2023-11-27T07:52:22.461Z,97595.91
2023-11-27T07:57:25.525Z,97613.47
2023-11-27T08:02:28.584Z,97598.69
2023-11-27T08:07:33.502Z,97587.34
2023-11-27T08:12:39.756Z,97590.00
2023-11-27T08:17:42.836Z,97584.25
2023-11-27T08:22:46.853Z,97595.59
2023-11-27T08:27:49.978Z,97567.88
2023-11-27T08:32:53.293Z,97573.00
2023-11-27T08:37:57.096Z,97586.28
2023-11-27T08:43:01.884Z,97577.47
2023-11-27T08:48:07.270Z,97573.81
2023-11-27T08:53:11.819Z,97566.28
2023-11-27T08:58:14.954Z,97564.75
2023-11-27T09:03:20.245Z,97555.59
2023-11-27T09:08:23.400Z,97554.81
2023-11-27T09:13:26.526Z,97554.75
2023-11-27T09:18:29.622Z,97546.91
2023-11-27T09:23:34.571Z,97511.31
2023-11-27T09:28:37.671Z,97541.72
2023-11-27T09:33:40.607Z,97569.34
2023-11-27T09:38:43.791Z,97576.16
2023-11-27T09:43:46.916Z,97559.94
2023-11-27T09:48:53.764Z,97549.63
2023-11-27T09:53:58.789Z,97583.03
2023-11-27T09:59:02.968Z,97597.81
2023-11-27T10:04:10.755Z,97577.41
2023-11-27T10:09:16.353Z,97521.97
2023-11-27T10:19:28.462Z,97485.81
2023-11-27T10:24:34.817Z,97496.72
2023-11-27T10:29:38.107Z,97512.31
2023-11-27T10:34:42.246Z,97448.34
2023-11-27T10:39:50.231Z,97482.09
2023-11-27T10:44:53.951Z,97525.78
2023-11-27T10:49:59.647Z,97498.50
2023-11-27T10:55:07.948Z,97546.63
2023-11-27T11:00:11.313Z,97557.31
2023-11-27T11:05:16.456Z,97552.50
2023-11-27T11:10:24.450Z,97551.75
2023-11-27T11:15:35.816Z,97566.97
2023-11-27T11:20:43.526Z,97541.47
2023-11-27T11:26:07.176Z,97532.63
2023-11-27T11:31:12.045Z,97528.06
2023-11-27T11:36:32.214Z,97550.91
2023-11-27T11:41:37.722Z,97564.91
2023-11-27T11:46:42.119Z,97581.97
2023-11-27T11:52:17.487Z,97586.94
2023-11-27T11:57:24.092Z,97602.91
2023-11-27T12:02:27.239Z,97600.09
2023-11-27T12:07:30.363Z,97591.78
2023-11-27T12:12:33.754Z,97566.69
2023-11-27T12:17:36.816Z,97568.94
2023-11-27T12:22:46.386Z,97583.50
2023-11-27T12:27:52.445Z,97589.88
2023-11-27T12:32:56.247Z,97602.41
2023-11-27T12:38:09.445Z,97599.31
2023-11-27T12:43:13.006Z,97608.41
2023-11-27T12:48:23.001Z,97621.72
2023-11-27T12:53:26.048Z,97634.69
2023-11-27T12:58:30.101Z,97634.22
2023-11-27T13:03:33.378Z,97652.47
2023-11-27T13:08:37.643Z,97671.38
2023-11-27T13:13:43.463Z,97695.00
2023-11-27T13:18:46.540Z,97702.72
2023-11-27T13:23:52.022Z,97708.34
2023-11-27T13:28:56.601Z,97706.47
2023-11-27T13:34:08.279Z,97705.41
2023-11-27T13:39:27.952Z,97700.84
2023-11-27T13:44:32.375Z,97702.03
2023-11-27T13:49:35.841Z,97698.66
2023-11-27T13:54:39.384Z,97716.53
2023-11-27T13:59:44.593Z,97703.97
2023-11-27T14:04:56.360Z,97712.72
2023-11-27T14:09:59.628Z,97699.84
2023-11-27T14:15:18.857Z,97716.13
2023-11-27T14:20:47.219Z,97722.56
2023-11-27T14:26:08.722Z,97716.00
2023-11-27T14:31:12.227Z,97719.00
2023-11-27T14:36:16.320Z,97723.94
2023-11-27T14:41:21.456Z,97715.88
2023-11-27T14:46:27.479Z,97742.47
2023-11-27T14:51:30.507Z,97743.94
2023-11-27T14:56:34.344Z,97747.53
2023-11-27T15:01:44.631Z,97756.72
2023-11-27T15:06:50.021Z,97779.94
2023-11-27T15:11:53.528Z,97789.84
2023-11-27T15:16:56.812Z,97788.41
2023-11-27T15:21:59.823Z,97779.69
2023-11-27T15:27:02.974Z,97796.81
2023-11-27T15:32:09.174Z,97804.47
2023-11-27T15:37:12.386Z,97806.81
2023-11-27T15:42:16.321Z,97813.28
2023-11-27T15:47:21.475Z,97816.00
2023-11-27T15:52:25.979Z,97813.75
2023-11-27T15:57:29.113Z,97828.22
2023-11-27T16:02:32.169Z,97814.19
2023-11-27T16:07:35.395Z,97835.84
2023-11-27T16:12:38.411Z,97839.25
2023-11-27T16:17:56.686Z,97835.41
2023-11-27T16:23:05.060Z,97836.88
2023-11-27T16:28:13.380Z,97844.47
2023-11-27T16:33:16.851Z,97846.31
2023-11-27T16:38:21.471Z,97857.31
2023-11-27T16:43:24.582Z,97887.66
2023-11-27T16:48:30.303Z,97883.06
2023-11-27T16:53:33.474Z,97889.16
2023-11-27T16:58:36.597Z,97897.91
2023-11-27T17:03:43.186Z,97930.19
2023-11-27T17:08:47.875Z,97925.31
2023-11-27T17:13:50.844Z,97931.44
2023-11-27T17:18:53.972Z,97946.72
2023-11-27T17:24:16.115Z,97950.19
2023-11-27T17:29:20.322Z,97956.66
2023-11-27T17:34:23.862Z,97954.81
2023-11-27T17:39:27.005Z,97973.78
2023-11-27T17:44:30.269Z,97968.53
2023-11-27T17:49:34.086Z,97971.56
2023-11-27T17:54:37.802Z,97973.44
2023-11-27T17:59:40.890Z,97961.69
2023-11-27T18:04:44.144Z,97966.97
2023-11-27T18:09:47.263Z,97968.50
2023-11-27T18:14:50.263Z,97974.19
2023-11-27T18:19:53.160Z,97966.59
2023-11-27T18:24:56.401Z,97975.28
2023-11-27T18:29:59.640Z,97992.00
2023-11-27T18:35:03.926Z,97999.94
2023-11-27T18:40:12.812Z,98010.19
2023-11-27T18:45:20.841Z,97996.91
2023-11-27T18:50:23.987Z,97990.47
2023-11-27T18:55:27.178Z,97992.75
2023-11-27T19:00:30.196Z,97981.00
2023-11-27T19:05:33.426Z,97976.09
2023-11-27T19:10:36.933Z,97976.09
2023-11-27T19:15:41.229Z,97985.19
2023-11-27T19:20:46.756Z,97997.28
2023-11-27T19:25:49.832Z,98009.44
2023-11-27T19:30:53.392Z,98015.47
2023-11-27T19:35:56.735Z,98020.03
2023-11-27T19:41:01.765Z,98027.25
2023-11-27T19:46:05.607Z,98034.44
2023-11-27T19:51:10.074Z,98050.75
2023-11-27T19:56:16.686Z,98052.66
2023-11-27T20:01:20.727Z,98026.88
2023-11-27T20:06:24.291Z,98025.75
2023-11-27T20:11:27.579Z,98037.84
2023-11-27T20:16:30.763Z,98044.69
2023-11-27T20:21:34.465Z,98036.72
2023-11-27T20:26:56.526Z,98044.72
2023-11-27T20:31:59.773Z,98043.59
2023-11-27T20:37:02.949Z,98038.63
2023-11-27T20:42:06.243Z,98035.22
2023-11-27T20:47:13.033Z,98045.47
2023-11-27T20:52:17.731Z,98051.91
2023-11-27T20:57:20.906Z,98061.41
2023-11-27T21:02:24.375Z,98070.09
2023-11-27T21:07:27.615Z,98050.41
2023-11-27T21:12:30.832Z,98054.19
2023-11-27T21:17:33.835Z,98072.78
2023-11-27T21:22:37.567Z,98081.13
2023-11-27T21:27:42.015Z,98090.97
2023-11-27T21:32:47.862Z,98087.97
2023-11-27T21:37:51.385Z,98093.63
2023-11-27T21:42:54.467Z,98114.88
2023-11-27T21:47:57.608Z,98118.66
2023-11-27T21:53:00.709Z,98120.56
2023-11-27T21:58:03.842Z,98118.31
2023-11-27T22:03:07.523Z,98136.13
2023-11-27T22:08:10.750Z,98141.06
2023-11-27T22:13:16.127Z,98141.06
2023-11-27T22:18:19.065Z,98132.31
2023-11-27T22:23:22.073Z,98152.03
2023-11-27T22:28:25.125Z,98155.06
2023-11-27T22:33:28.392Z,98153.53
2023-11-27T22:38:32.009Z,98161.88
2023-11-27T22:43:35.832Z,98161.13
2023-11-27T22:48:39.024Z,98172.53
2023-11-27T22:53:42.038Z,98188.44
2023-11-27T22:58:45.237Z,98191.44
2023-11-27T23:03:48.347Z,98197.09
2023-11-27T23:08:52.963Z,98200.84
2023-11-27T23:13:56.066Z,98201.16
2023-11-27T23:18:59.121Z,98198.88
2023-11-27T23:24:04.873Z,98205.28
2023-11-27T23:29:11.792Z,98206.78
2023-11-27T23:34:14.920Z,98206.38
2023-11-27T23:39:18.315Z,98196.44
2023-11-27T23:44:21.723Z,98210.72
2023-11-27T23:49:27.139Z,98229.53
2023-11-27T23:54:30.218Z,98243.41
2023-11-27T23:59:33.302Z,98241.50
